Time;durP1;ratioP1;P1;durP2;ratioP2;P2;SDS_P1;SDS_P2;PMS_P1;PMS_P2;Temp;Humidity;BMP_temperature;BMP_pressure;BME280_temperature;BME280_humidity;BME280_pressure;Samples;Min_cycle;Max_cycle;Signal;HPM_P1;HPM_P2
2024/02/09 00:01:18;;;;;;;3.03;2.63;;;;;;;;;;5036483;28;20024;-62
2024/02/09 00:03:45;;;;;;;5.70;3.03;;;;;;;;;;5017750;28;20036;-62
2024/02/09 00:06:11;;;;;;;3.30;2.20;;;;;;;;;;5035127;28;20033;-61
2024/02/09 00:08:41;;;;;;;4.57;3.28;;;;;;;;;;5017896;28;20152;-61
2024/02/09 00:11:07;;;;;;;3.35;2.42;;;;;;;;;;5027644;28;20035;-61
2024/02/09 00:13:34;;;;;;;4.10;2.50;;;;;;;;;;5035750;28;20512;-61
2024/02/09 00:16:04;;;;;;;8.18;3.25;;;;;;;;;;5039919;28;20397;-61
2024/02/09 00:18:31;;;;;;;5.10;2.78;;;;;;;;;;5033991;28;20530;-62
2024/02/09 00:20:57;;;;;;;3.10;2.80;;;;;;;;;;5035576;28;20339;-62
2024/02/09 00:23:23;;;;;;;6.38;2.70;;;;;;;;;;5037915;28;20025;-62
2024/02/09 00:25:50;;;;;;;2.53;2.20;;;;;;;;;;5034960;28;20115;-61
2024/02/09 00:28:16;;;;;;;11.32;3.08;;;;;;;;;;5034144;28;20045;-62
2024/02/09 00:30:42;;;;;;;2.72;2.22;;;;;;;;;;5031501;28;20037;-62
2024/02/09 00:33:11;;;;;;;2.60;2.40;;;;;;;;;;5033754;28;20079;-61
2024/02/09 00:35:42;;;;;;;2.30;1.77;;;;;;;;;;5033022;28;20454;-61
2024/02/09 00:38:09;;;;;;;3.70;2.63;;;;;;;;;;5019770;28;20026;-61
2024/02/09 00:40:36;;;;;;;4.10;2.30;;;;;;;;;;5016511;28;20029;-62
2024/02/09 00:43:03;;;;;;;1.92;1.83;;;;;;;;;;5034331;28;20029;-61
2024/02/09 00:45:36;;;;;;;4.15;2.28;;;;;;;;;;5017553;28;20029;-63
2024/02/09 00:48:03;;;;;;;4.65;2.17;;;;;;;;;;5020829;28;20033;-61
2024/02/09 00:50:30;;;;;;;2.22;1.92;;;;;;;;;;5037986;28;20480;-61
2024/02/09 00:53:10;;;;;;;4.45;2.10;;;;;;;;;;5017867;28;20028;-62
2024/02/09 00:55:36;;;;;;;1.92;1.83;;;;;;;;;;5033269;28;20097;-61
2024/02/09 00:58:02;;;;;;;1.77;1.67;;;;;;;;;;5032253;28;20024;-62
2024/02/09 01:00:30;;;;;;;7.03;2.58;;;;;;;;;;5033312;28;20021;-61
2024/02/09 01:02:57;;;;;;;6.55;1.77;;;;;;;;;;5037493;28;20411;-63
2024/02/09 01:05:24;;;;;;;3.30;2.30;;;;;;;;;;5017981;28;20377;-62
2024/02/09 01:07:51;;;;;;;2.08;1.88;;;;;;;;;;5035985;28;20032;-62
2024/02/09 01:10:18;;;;;;;1.95;1.85;;;;;;;;;;5036477;28;20029;-61
2024/02/09 02:45:58;;;;;;;11.90;2.20;;;;;;;;;;5035559;28;20032;-63
2024/02/09 03:04:57;;;;;;;5.20;2.20;;;;;;;;;;5039678;28;20110;-63
2024/02/09 03:07:23;;;;;;;1.05;1.05;;;;;;;;;;5040258;28;20094;-64
2024/02/09 03:09:49;;;;;;;2.20;1.95;;;;;;;;;;5042099;28;20033;-64
2024/02/09 03:12:17;;;;;;;2.58;2.30;;;;;;;;;;5038917;28;20504;-64
2024/02/09 03:14:44;;;;;;;6.88;1.70;;;;;;;;;;5020599;28;20033;-63
2024/02/09 03:17:10;;;;;;;1.65;1.55;;;;;;;;;;5024178;28;20029;-64
2024/02/09 03:19:36;;;;;;;3.67;2.17;;;;;;;;;;5023661;28;20029;-64
2024/02/09 03:22:04;;;;;;;5.32;1.70;;;;;;;;;;5036721;28;20032;-63
2024/02/09 03:24:31;;;;;;;2.58;2.30;;;;;;;;;;5039642;28;20028;-64
2024/02/09 03:26:57;;;;;;;2.45;1.88;;;;;;;;;;5040856;28;20032;-64
2024/02/09 03:29:23;;;;;;;2.92;2.00;;;;;;;;;;5014870;28;20262;-61
2024/02/09 03:31:50;;;;;;;4.07;1.52;;;;;;;;;;5041345;28;20107;-62
2024/02/09 03:34:19;;;;;;;1.60;1.50;;;;;;;;;;5017159;28;20033;-62
2024/02/09 03:36:45;;;;;;;3.28;1.95;;;;;;;;;;5020636;28;20787;-61
2024/02/09 03:39:11;;;;;;;4.72;2.28;;;;;;;;;;5035840;28;20029;-62
2024/02/09 03:41:38;;;;;;;4.47;1.92;;;;;;;;;;5040536;28;20025;-61
2024/02/09 03:44:04;;;;;;;4.18;1.70;;;;;;;;;;5018625;28;21004;-62
2024/02/09 03:46:34;;;;;;;2.30;1.80;;;;;;;;;;5018065;28;20052;-62
2024/02/09 03:49:00;;;;;;;6.68;1.85;;;;;;;;;;5026181;28;20029;-62
2024/02/09 03:51:26;;;;;;;6.90;2.78;;;;;;;;;;5020629;28;21024;-62
2024/02/09 03:53:53;;;;;;;2.17;1.75;;;;;;;;;;5039698;28;20052;-62
2024/02/09 03:56:19;;;;;;;2.22;1.45;;;;;;;;;;5034850;28;20024;-62
2024/02/09 03:58:46;;;;;;;2.45;2.08;;;;;;;;;;5015815;28;20370;-62
2024/02/09 04:01:12;;;;;;;5.28;1.92;;;;;;;;;;5016508;28;20538;-61
2024/02/09 04:03:38;;;;;;;15.77;2.85;;;;;;;;;;5031556;28;20108;-63
2024/02/09 04:06:06;;;;;;;1.88;1.77;;;;;;;;;;5037686;28;20396;-62
2024/02/09 04:08:32;;;;;;;2.60;1.80;;;;;;;;;;5037096;28;20084;-61
2024/02/09 04:11:02;;;;;;;4.22;2.00;;;;;;;;;;5038036;28;20435;-62
2024/02/09 04:13:28;;;;;;;8.10;2.28;;;;;;;;;;5017477;28;20556;-61
2024/02/09 04:15:57;;;;;;;9.25;2.90;;;;;;;;;;5040034;28;20356;-62
2024/02/09 04:18:25;;;;;;;8.23;2.28;;;;;;;;;;5034991;28;20033;-62
2024/02/09 04:20:51;;;;;;;2.30;2.10;;;;;;;;;;5039361;28;20021;-61
2024/02/09 04:23:19;;;;;;;2.00;1.73;;;;;;;;;;5020532;28;20112;-63
2024/02/09 04:25:45;;;;;;;6.72;1.65;;;;;;;;;;5043891;28;20028;-61
2024/02/09 04:28:17;;;;;;;5.55;1.70;;;;;;;;;;5040734;28;20492;-62
2024/02/09 04:30:46;;;;;;;6.72;2.15;;;;;;;;;;5035390;28;20103;-62
2024/02/09 04:33:12;;;;;;;2.15;1.95;;;;;;;;;;5016831;28;20119;-62
2024/02/09 04:35:38;;;;;;;3.38;1.85;;;;;;;;;;5036580;28;20033;-61
2024/02/09 04:38:06;;;;;;;5.40;1.80;;;;;;;;;;5020091;28;20037;-61
2024/02/09 04:40:33;;;;;;;3.53;1.98;;;;;;;;;;5018936;28;20500;-62
2024/02/09 04:42:59;;;;;;;7.95;2.00;;;;;;;;;;5019518;28;20063;-61
2024/02/09 04:45:25;;;;;;;3.30;1.27;;;;;;;;;;5024228;28;20150;-61
2024/02/09 04:47:53;;;;;;;3.03;2.08;;;;;;;;;;5021762;28;20033;-61
2024/02/09 04:50:21;;;;;;;3.42;1.83;;;;;;;;;;5024694;28;20481;-64
2024/02/09 04:52:47;;;;;;;3.38;1.80;;;;;;;;;;5038129;28;20025;-65
2024/02/09 04:55:15;;;;;;;5.07;2.30;;;;;;;;;;5043168;28;20734;-64
2024/02/09 04:57:45;;;;;;;3.05;2.00;;;;;;;;;;5021120;28;20071;-64
2024/02/09 05:00:11;;;;;;;5.57;2.08;;;;;;;;;;5041379;28;20082;-64
2024/02/09 05:02:43;;;;;;;4.65;1.88;;;;;;;;;;5041736;28;20116;-64
2024/02/09 05:05:10;;;;;;;2.10;1.92;;;;;;;;;;5018485;28;20021;-64
2024/02/09 05:07:37;;;;;;;5.50;2.03;;;;;;;;;;5026279;28;20029;-64
2024/02/09 05:10:04;;;;;;;3.45;1.35;;;;;;;;;;5017267;28;20095;-64
2024/02/09 05:12:31;;;;;;;4.50;2.15;;;;;;;;;;5044116;28;20029;-64
2024/02/09 05:14:57;;;;;;;3.92;2.10;;;;;;;;;;5042959;28;20387;-64
2024/02/09 05:17:24;;;;;;;1.20;1.20;;;;;;;;;;5039513;28;20704;-64
2024/02/09 05:19:57;;;;;;;1.50;1.40;;;;;;;;;;5045640;28;20047;-64
2024/02/09 05:22:24;;;;;;;1.77;1.67;;;;;;;;;;5037179;28;20117;-65
2024/02/09 05:24:50;;;;;;;1.25;1.25;;;;;;;;;;5021954;28;20026;-64
2024/02/09 05:27:18;;;;;;;1.65;1.38;;;;;;;;;;5040424;28;20040;-64
2024/02/09 05:29:44;;;;;;;16.38;1.65;;;;;;;;;;5044189;28;20045;-64
2024/02/09 05:32:10;;;;;;;5.13;1.58;;;;;;;;;;5040885;28;20110;-64
2024/02/09 05:34:36;;;;;;;1.67;1.52;;;;;;;;;;5037772;28;20028;-64
2024/02/09 05:37:03;;;;;;;1.60;1.10;;;;;;;;;;5039589;28;20032;-64
2024/02/09 05:39:30;;;;;;;1.60;1.42;;;;;;;;;;5043374;28;20021;-65
2024/02/09 05:41:57;;;;;;;2.03;1.90;;;;;;;;;;5042816;28;20078;-64
2024/02/09 05:44:23;;;;;;;5.35;1.40;;;;;;;;;;5019226;28;20498;-64
2024/02/09 05:46:49;;;;;;;4.93;1.85;;;;;;;;;;5049575;28;20033;-64
2024/02/09 05:49:16;;;;;;;2.38;1.95;;;;;;;;;;5034053;28;20060;-64
2024/02/09 05:51:42;;;;;;;2.63;1.67;;;;;;;;;;5045415;28;20029;-63
2024/02/09 05:54:08;;;;;;;5.18;1.45;;;;;;;;;;5046918;28;20028;-64
2024/02/09 05:56:34;;;;;;;1.85;1.75;;;;;;;;;;5025176;28;20504;-64
2024/02/09 05:59:04;;;;;;;4.70;1.92;;;;;;;;;;5044487;28;20021;-64
2024/02/09 06:01:30;;;;;;;4.80;2.03;;;;;;;;;;5045653;28;20024;-64
2024/02/09 06:03:57;;;;;;;12.05;2.13;;;;;;;;;;5040913;28;20100;-64
2024/02/09 06:06:23;;;;;;;17.42;2.63;;;;;;;;;;5045722;28;20073;-65
2024/02/09 06:08:50;;;;;;;6.55;2.28;;;;;;;;;;5044631;28;20080;-64
2024/02/09 06:11:22;;;;;;;6.22;1.95;;;;;;;;;;5040638;28;20100;-63
2024/02/09 06:13:48;;;;;;;1.95;1.75;;;;;;;;;;5042081;28;20052;-64
2024/02/09 06:16:22;;;;;;;3.08;2.58;;;;;;;;;;5045587;28;20352;-63
2024/02/09 06:18:49;;;;;;;1.75;1.52;;;;;;;;;;5042937;28;20025;-63
2024/02/09 06:21:18;;;;;;;5.40;1.92;;;;;;;;;;5027169;28;20115;-64
2024/02/09 06:23:45;;;;;;;3.83;1.65;;;;;;;;;;5044935;28;20484;-64
2024/02/09 06:26:14;;;;;;;3.30;2.25;;;;;;;;;;5045625;28;20032;-63
2024/02/09 06:28:46;;;;;;;1.88;1.50;;;;;;;;;;5039673;28;20072;-64
2024/02/09 06:31:23;;;;;;;3.90;1.95;;;;;;;;;;5041075;28;20396;-63
2024/02/09 06:33:50;;;;;;;2.00;1.73;;;;;;;;;;5041939;28;20025;-63
2024/02/09 06:36:17;;;;;;;14.63;3.25;;;;;;;;;;5044285;28;20055;-64
2024/02/09 06:38:43;;;;;;;2.10;2.00;;;;;;;;;;5043133;28;20029;-64
2024/02/09 06:41:10;;;;;;;27.63;4.20;;;;;;;;;;5039037;28;20024;-64
2024/02/09 06:43:36;;;;;;;2.60;1.80;;;;;;;;;;5044960;28;20028;-65
2024/02/09 06:46:03;;;;;;;2.10;1.75;;;;;;;;;;5042996;28;20033;-65
2024/02/09 06:48:30;;;;;;;7.35;2.08;;;;;;;;;;5017572;28;20029;-64
2024/02/09 06:50:56;;;;;;;4.65;1.45;;;;;;;;;;5040993;28;20025;-69
2024/02/09 06:53:22;;;;;;;5.63;1.60;;;;;;;;;;5023171;28;20040;-69
2024/02/09 06:55:52;;;;;;;7.20;1.83;;;;;;;;;;5044717;28;20037;-70
2024/02/09 06:58:19;;;;;;;9.45;2.47;;;;;;;;;;5044515;28;20051;-69
2024/02/09 07:00:45;;;;;;;4.32;1.88;;;;;;;;;;5021241;28;20449;-70
2024/02/09 07:03:17;;;;;;;7.05;2.78;;;;;;;;;;5042995;28;20013;-70
2024/02/09 07:05:43;;;;;;;4.22;1.85;;;;;;;;;;5043365;28;20025;-70
2024/02/09 07:08:10;;;;;;;2.33;2.13;;;;;;;;;;5041336;28;20103;-70
2024/02/09 07:10:36;;;;;;;3.83;1.70;;;;;;;;;;5027361;28;20499;-70
2024/02/09 07:13:02;;;;;;;6.07;3.05;;;;;;;;;;5035020;28;20033;-71
2024/02/09 07:15:30;;;;;;;1.63;1.30;;;;;;;;;;5028962;28;20116;-70
2024/02/09 07:17:57;;;;;;;2.10;1.77;;;;;;;;;;5042183;28;20025;-70
2024/02/09 07:20:24;;;;;;;2.90;1.63;;;;;;;;;;5042599;28;20025;-70
2024/02/09 07:22:51;;;;;;;3.85;1.98;;;;;;;;;;5044196;28;20366;-70
2024/02/09 07:25:17;;;;;;;2.47;1.48;;;;;;;;;;5039720;28;20021;-70
2024/02/09 07:27:43;;;;;;;1.55;1.45;;;;;;;;;;5046891;28;20507;-70
2024/02/09 07:30:10;;;;;;;8.30;2.22;;;;;;;;;;5034592;28;20025;-71
2024/02/09 07:32:36;;;;;;;12.68;2.60;;;;;;;;;;5042146;28;20036;-71
2024/02/09 07:35:04;;;;;;;6.03;2.75;;;;;;;;;;5038721;28;20033;-70
2024/02/09 07:37:30;;;;;;;8.05;2.15;;;;;;;;;;5022792;28;20401;-70
2024/02/09 07:39:59;;;;;;;5.68;2.33;;;;;;;;;;5040638;28;20013;-71
2024/02/09 07:42:25;;;;;;;6.07;2.05;;;;;;;;;;5047127;28;20021;-71
2024/02/09 07:44:51;;;;;;;5.47;1.77;;;;;;;;;;5045712;28;20032;-71
2024/02/09 07:47:18;;;;;;;16.75;2.38;;;;;;;;;;5043415;28;20112;-69
2024/02/09 07:49:44;;;;;;;6.85;2.22;;;;;;;;;;5043708;28;20031;-70
2024/02/09 07:52:10;;;;;;;6.57;2.58;;;;;;;;;;5046137;28;20103;-69
2024/02/09 07:54:36;;;;;;;9.27;2.00;;;;;;;;;;5025150;28;20424;-71
2024/02/09 07:57:04;;;;;;;4.63;1.35;;;;;;;;;;5042955;28;20021;-70
2024/02/09 07:59:31;;;;;;;2.67;2.15;;;;;;;;;;5045621;28;20445;-70
2024/02/09 08:01:57;;;;;;;1.83;1.67;;;;;;;;;;5049525;28;20049;-69
2024/02/09 08:04:31;;;;;;;5.65;1.52;;;;;;;;;;5042849;28;20033;-70
2024/02/09 08:06:57;;;;;;;5.93;1.90;;;;;;;;;;5017088;28;20052;-70
2024/02/09 08:09:24;;;;;;;3.25;1.98;;;;;;;;;;5037608;28;20029;-70
2024/02/09 08:11:50;;;;;;;1.50;1.40;;;;;;;;;;5039653;28;20028;-70
2024/02/09 08:14:16;;;;;;;4.82;1.83;;;;;;;;;;5043328;28;20483;-70
2024/02/09 08:16:44;;;;;;;2.97;1.88;;;;;;;;;;5044463;28;20472;-69
2024/02/09 08:19:10;;;;;;;2.97;1.88;;;;;;;;;;5021387;28;20086;-70
2024/02/09 08:21:39;;;;;;;2.13;1.92;;;;;;;;;;5037203;28;20086;-70
2024/02/09 08:24:05;;;;;;;7.57;1.90;;;;;;;;;;5038076;28;20469;-70
2024/02/09 08:26:31;;;;;;;7.68;2.53;;;;;;;;;;5041788;28;20025;-70
2024/02/09 08:28:59;;;;;;;4.82;2.38;;;;;;;;;;5025674;28;20049;-70
2024/02/09 08:31:25;;;;;;;4.97;2.38;;;;;;;;;;5044252;28;20060;-70
2024/02/09 08:33:51;;;;;;;4.28;1.50;;;;;;;;;;5041336;28;20061;-71
2024/02/09 08:36:21;;;;;;;2.40;2.15;;;;;;;;;;5044196;28;20958;-70
2024/02/09 08:38:47;;;;;;;6.18;2.22;;;;;;;;;;5047255;28;20017;-69
2024/02/09 08:41:13;;;;;;;2.53;2.33;;;;;;;;;;5040666;28;20025;-70
2024/02/09 08:43:42;;;;;;;6.18;2.53;;;;;;;;;;5040015;28;20029;-70
2024/02/09 08:46:08;;;;;;;2.78;1.80;;;;;;;;;;5044897;28;20079;-70
2024/02/09 08:48:35;;;;;;;3.22;1.92;;;;;;;;;;5029804;28;20048;-70
2024/02/09 08:51:01;;;;;;;5.15;2.53;;;;;;;;;;5046122;28;20036;-70
2024/02/09 08:53:27;;;;;;;7.25;2.33;;;;;;;;;;5039511;28;20056;-71
2024/02/09 08:55:53;;;;;;;3.83;2.08;;;;;;;;;;5045803;28;20850;-70
2024/02/09 08:58:19;;;;;;;2.80;2.30;;;;;;;;;;5045505;28;20032;-70
2024/02/09 09:00:46;;;;;;;9.68;2.15;;;;;;;;;;5045809;28;20025;-71
2024/02/09 09:03:13;;;;;;;7.47;2.15;;;;;;;;;;5040898;28;20055;-70
2024/02/09 09:05:40;;;;;;;2.95;1.80;;;;;;;;;;5045017;28;20056;-70
2024/02/09 09:08:09;;;;;;;4.18;2.00;;;;;;;;;;5043482;28;20459;-71
2024/02/09 09:10:35;;;;;;;12.27;2.25;;;;;;;;;;5017548;28;20040;-63
2024/02/09 09:13:01;;;;;;;4.28;1.67;;;;;;;;;;5036552;28;20086;-63
2024/02/09 09:15:27;;;;;;;5.20;2.28;;;;;;;;;;5016959;28;20029;-63
2024/02/09 09:17:53;;;;;;;9.40;2.70;;;;;;;;;;5041467;28;20682;-63
2024/02/09 09:20:19;;;;;;;7.75;2.25;;;;;;;;;;5040374;28;20036;-63
2024/02/09 09:22:46;;;;;;;3.55;2.80;;;;;;;;;;5043157;28;20021;-63
2024/02/09 09:25:12;;;;;;;1.83;1.63;;;;;;;;;;5009940;28;20485;-63
2024/02/09 09:27:38;;;;;;;4.20;2.03;;;;;;;;;;5039043;28;20030;-65
2024/02/09 09:30:05;;;;;;;2.00;1.90;;;;;;;;;;5034484;28;20061;-63
2024/02/09 09:32:32;;;;;;;4.50;1.65;;;;;;;;;;5037204;28;20033;-64
2024/02/09 09:35:02;;;;;;;9.23;2.75;;;;;;;;;;5013720;28;20029;-64
2024/02/09 09:37:28;;;;;;;3.50;1.85;;;;;;;;;;5019267;28;20041;-63
2024/02/09 09:39:54;;;;;;;10.40;1.88;;;;;;;;;;5036617;28;20116;-63
2024/02/09 09:42:23;;;;;;;1.80;1.70;;;;;;;;;;5032910;28;20036;-64
2024/02/09 09:44:52;;;;;;;4.93;2.17;;;;;;;;;;5031873;28;20020;-63
2024/02/09 09:47:19;;;;;;;1.80;1.70;;;;;;;;;;5021870;28;20025;-63
2024/02/09 09:49:46;;;;;;;2.28;1.70;;;;;;;;;;5039269;28;20358;-63
2024/02/09 09:52:15;;;;;;;5.32;2.22;;;;;;;;;;5022392;28;20025;-63
2024/02/09 09:54:43;;;;;;;3.70;2.15;;;;;;;;;;5039768;28;20033;-63
2024/02/09 09:57:09;;;;;;;5.85;1.75;;;;;;;;;;5039818;28;20056;-62
2024/02/09 09:59:36;;;;;;;5.65;1.77;;;;;;;;;;5036346;28;20032;-63
2024/02/09 10:02:05;;;;;;;3.88;1.60;;;;;;;;;;5041458;28;20120;-63
2024/02/09 10:04:32;;;;;;;3.55;2.33;;;;;;;;;;5037956;28;20100;-63
2024/02/09 10:07:09;;;;;;;2.05;1.60;;;;;;;;;;5020175;28;20040;-63
2024/02/09 10:09:35;;;;;;;9.90;2.25;;;;;;;;;;5032372;28;20048;-63
2024/02/09 10:12:06;;;;;;;3.90;2.08;;;;;;;;;;5018894;28;20089;-66
2024/02/09 10:14:32;;;;;;;10.40;2.88;;;;;;;;;;5042041;28;20029;-63
2024/02/09 10:16:59;;;;;;;4.55;1.73;;;;;;;;;;5019461;28;20336;-62
2024/02/09 10:19:25;;;;;;;1.70;1.52;;;;;;;;;;5023059;28;20037;-62
2024/02/09 10:21:51;;;;;;;1.98;1.50;;;;;;;;;;5045175;28;20296;-63
2024/02/09 10:24:17;;;;;;;4.30;1.92;;;;;;;;;;5020918;28;20057;-63
2024/02/09 10:26:46;;;;;;;6.32;2.28;;;;;;;;;;5039976;28;20252;-62
2024/02/09 10:29:14;;;;;;;1.88;1.77;;;;;;;;;;5022645;28;20074;-62
2024/02/09 10:31:40;;;;;;;2.13;1.42;;;;;;;;;;5039365;28;20047;-63
2024/02/09 10:34:06;;;;;;;3.05;1.52;;;;;;;;;;5044366;28;20515;-63
2024/02/09 10:36:35;;;;;;;2.00;1.90;;;;;;;;;;5038778;28;20033;-63
2024/02/09 10:39:01;;;;;;;8.02;2.30;;;;;;;;;;5035426;28;20079;-63
2024/02/09 10:41:29;;;;;;;1.33;1.23;;;;;;;;;;5036844;28;20025;-63
2024/02/09 10:43:58;;;;;;;4.93;1.58;;;;;;;;;;5038608;28;20033;-63
2024/02/09 10:46:27;;;;;;;1.10;1.10;;;;;;;;;;5040988;28;20029;-63
2024/02/09 10:48:57;;;;;;;1.70;1.60;;;;;;;;;;5021946;28;20040;-63
2024/02/09 10:51:27;;;;;;;4.32;1.88;;;;;;;;;;5027166;28;20020;-63
2024/02/09 10:54:02;;;;;;;7.00;2.28;;;;;;;;;;5025853;28;20467;-63
2024/02/09 10:56:30;;;;;;;2.75;2.22;;;;;;;;;;5034025;28;20492;-63
2024/02/09 10:58:57;;;;;;;6.13;2.70;;;;;;;;;;5038615;28;20036;-63
2024/02/09 11:01:24;;;;;;;4.72;4.05;;;;;;;;;;5040668;28;20033;-62
2024/02/09 11:03:50;;;;;;;5.15;3.55;;;;;;;;;;5043007;28;20117;-62
2024/02/09 11:06:16;;;;;;;2.53;2.33;;;;;;;;;;5040003;28;20445;-62
2024/02/09 11:08:43;;;;;;;1.60;1.50;;;;;;;;;;5042961;28;20044;-62
2024/02/09 11:11:10;;;;;;;2.03;1.85;;;;;;;;;;5040809;28;20029;-62
2024/02/09 11:13:37;;;;;;;1.63;1.52;;;;;;;;;;5022400;28;20373;-63
2024/02/09 11:16:03;;;;;;;3.00;1.92;;;;;;;;;;5042713;28;20029;-62
2024/02/09 11:18:30;;;;;;;1.80;1.70;;;;;;;;;;5022563;28;20030;-63
2024/02/09 11:21:01;;;;;;;4.85;2.95;;;;;;;;;;5025456;28;20083;-62
2024/02/09 11:23:28;;;;;;;4.43;2.42;;;;;;;;;;5035881;28;20378;-62
2024/02/09 11:25:58;;;;;;;2.03;1.80;;;;;;;;;;5017144;28;20059;-63
2024/02/09 11:28:24;;;;;;;8.98;2.60;;;;;;;;;;5038274;28;20174;-62
2024/02/09 11:30:54;;;;;;;4.18;3.28;;;;;;;;;;5042007;28;20028;-63
2024/02/09 11:33:23;;;;;;;5.20;4.68;;;;;;;;;;5042955;28;20423;-65
2024/02/09 11:35:49;;;;;;;3.60;3.00;;;;;;;;;;5042011;28;20051;-62
2024/02/09 11:38:22;;;;;;;7.63;3.20;;;;;;;;;;5038892;28;20120;-63
2024/02/09 11:40:52;;;;;;;7.25;2.55;;;;;;;;;;5024694;28;20021;-63
2024/02/09 11:43:19;;;;;;;6.00;2.95;;;;;;;;;;5045526;28;20029;-63
2024/02/09 11:45:45;;;;;;;1.65;1.55;;;;;;;;;;5021089;28;20029;-63
2024/02/09 11:48:12;;;;;;;1.70;1.60;;;;;;;;;;5042311;28;20172;-62
2024/02/09 11:50:39;;;;;;;3.05;1.80;;;;;;;;;;5039577;28;20036;-63
2024/02/09 11:53:06;;;;;;;2.10;2.00;;;;;;;;;;5016889;28;20350;-64
2024/02/09 11:55:33;;;;;;;1.70;1.60;;;;;;;;;;5040675;28;20029;-63
2024/02/09 11:57:59;;;;;;;14.90;1.92;;;;;;;;;;5019668;28;20017;-63
2024/02/09 12:00:26;;;;;;;4.63;1.85;;;;;;;;;;5045295;28;20043;-63
2024/02/09 12:02:52;;;;;;;1.27;1.27;;;;;;;;;;5021696;28;20225;-63
2024/02/09 12:05:19;;;;;;;1.70;1.60;;;;;;;;;;5021151;28;20021;-62
2024/02/09 12:07:46;;;;;;;3.42;1.40;;;;;;;;;;5045616;28;20040;-63
2024/02/09 12:10:12;;;;;;;4.30;1.45;;;;;;;;;;5020121;28;20025;-63
2024/02/09 12:12:38;;;;;;;1.92;1.83;;;;;;;;;;5037625;28;20024;-62
2024/02/09 12:15:05;;;;;;;2.53;1.80;;;;;;;;;;5039755;28;20036;-64
2024/02/09 12:17:31;;;;;;;1.60;1.50;;;;;;;;;;5041244;28;20291;-63
2024/02/09 12:20:08;;;;;;;1.70;1.60;;;;;;;;;;5023177;28;20131;-68
2024/02/09 12:22:36;;;;;;;2.95;2.47;;;;;;;;;;5039342;28;20919;-62
2024/02/09 12:25:05;;;;;;;1.73;1.63;;;;;;;;;;5037253;28;20028;-63
2024/02/09 12:27:31;;;;;;;2.00;1.70;;;;;;;;;;5041978;28;20449;-63
2024/02/09 12:29:57;;;;;;;3.50;2.20;;;;;;;;;;5040742;28;20054;-62
2024/02/09 12:32:24;;;;;;;1.40;1.40;;;;;;;;;;5038731;28;20043;-63
2024/02/09 12:34:50;;;;;;;1.52;1.42;;;;;;;;;;5043431;28;20059;-63
2024/02/09 12:37:20;;;;;;;1.58;1.50;;;;;;;;;;5036911;28;20039;-63
2024/02/09 12:39:49;;;;;;;2.35;2.05;;;;;;;;;;5042339;28;20043;-63
2024/02/09 12:42:20;;;;;;;7.22;2.10;;;;;;;;;;5040259;28;20701;-63
2024/02/09 12:44:49;;;;;;;4.68;1.90;;;;;;;;;;5025463;28;20123;-63
2024/02/09 12:47:18;;;;;;;1.50;1.40;;;;;;;;;;5039725;28;20033;-62
2024/02/09 12:49:49;;;;;;;2.00;1.83;;;;;;;;;;5043524;28;20037;-62
2024/02/09 12:52:19;;;;;;;2.13;1.92;;;;;;;;;;5039463;28;20074;-64
2024/02/09 12:54:46;;;;;;;3.42;1.75;;;;;;;;;;5022002;28;20033;-63
2024/02/09 12:57:13;;;;;;;2.38;2.17;;;;;;;;;;5040744;28;20021;-62
2024/02/09 12:59:42;;;;;;;2.70;2.35;;;;;;;;;;5038520;28;20029;-63
2024/02/09 13:02:10;;;;;;;2.08;1.98;;;;;;;;;;5040495;28;20400;-62
2024/02/09 13:04:36;;;;;;;6.35;2.05;;;;;;;;;;5019327;28;20028;-63
2024/02/09 13:07:06;;;;;;;8.32;1.63;;;;;;;;;;5043775;28;20037;-63
2024/02/09 13:09:32;;;;;;;2.00;1.73;;;;;;;;;;5036255;28;20032;-63
2024/02/09 13:11:58;;;;;;;5.45;2.13;;;;;;;;;;5038949;28;20116;-63
2024/02/09 13:14:25;;;;;;;7.07;1.80;;;;;;;;;;5015376;28;20029;-63
2024/02/09 13:16:52;;;;;;;2.08;1.60;;;;;;;;;;5037222;28;20022;-62
2024/02/09 13:19:18;;;;;;;5.05;1.85;;;;;;;;;;5037620;28;20068;-63
2024/02/09 13:22:01;;;;;;;1.20;1.20;;;;;;;;;;5042045;28;20049;-63
2024/02/09 13:24:31;;;;;;;2.08;1.95;;;;;;;;;;5034229;28;20440;-63
2024/02/09 13:26:58;;;;;;;9.00;2.67;;;;;;;;;;5038187;28;20044;-63
2024/02/09 13:29:27;;;;;;;3.33;2.88;;;;;;;;;;5037789;28;20082;-63
2024/02/09 13:31:54;;;;;;;5.70;3.25;;;;;;;;;;5022611;28;20554;-63
2024/02/09 13:34:26;;;;;;;2.45;2.20;;;;;;;;;;5017322;28;20117;-63
2024/02/09 13:36:53;;;;;;;2.60;2.40;;;;;;;;;;5042041;28;20031;-63
2024/02/09 13:39:19;;;;;;;1.98;1.88;;;;;;;;;;5043557;28;20021;-63
2024/02/09 13:41:45;;;;;;;5.82;2.10;;;;;;;;;;5041724;28;20036;-63
2024/02/09 13:44:15;;;;;;;2.47;2.28;;;;;;;;;;5042213;28;20104;-63
2024/02/09 13:46:43;;;;;;;4.93;4.35;;;;;;;;;;5041111;28;20064;-63
2024/02/09 13:49:09;;;;;;;6.38;2.63;;;;;;;;;;5023468;28;20079;-64
2024/02/09 13:51:35;;;;;;;2.17;2.00;;;;;;;;;;5024448;28;20037;-63
2024/02/09 13:54:02;;;;;;;2.72;1.92;;;;;;;;;;5025381;28;20075;-63
2024/02/09 13:56:28;;;;;;;3.88;3.53;;;;;;;;;;5022975;28;20396;-63
2024/02/09 13:58:54;;;;;;;6.15;3.80;;;;;;;;;;5025905;28;20025;-65
2024/02/09 14:01:23;;;;;;;2.20;1.63;;;;;;;;;;5039060;28;20041;-64
2024/02/09 14:03:50;;;;;;;2.40;2.20;;;;;;;;;;5037631;28;20252;-64
2024/02/09 14:06:19;;;;;;;2.58;2.22;;;;;;;;;;5038742;28;20423;-63
2024/02/09 14:08:47;;;;;;;6.57;2.55;;;;;;;;;;5043236;28;20075;-64
2024/02/09 14:11:13;;;;;;;2.15;1.95;;;;;;;;;;5044504;28;20035;-64
2024/02/09 14:13:39;;;;;;;2.53;2.13;;;;;;;;;;5041688;28;20473;-64
2024/02/09 14:16:09;;;;;;;3.45;2.38;;;;;;;;;;5042732;28;20044;-64
2024/02/09 14:18:36;;;;;;;3.28;2.47;;;;;;;;;;5024735;28;20476;-64
2024/02/09 14:21:05;;;;;;;4.38;3.20;;;;;;;;;;5044671;28;20053;-64
2024/02/09 14:23:32;;;;;;;2.92;2.60;;;;;;;;;;5041910;28;20473;-64
2024/02/09 14:25:59;;;;;;;3.60;3.30;;;;;;;;;;5025282;28;20049;-64
2024/02/09 14:28:25;;;;;;;3.83;2.38;;;;;;;;;;5045798;28;20512;-64
2024/02/09 14:30:52;;;;;;;3.05;2.47;;;;;;;;;;5042793;28;20528;-64
2024/02/09 14:33:21;;;;;;;3.80;2.67;;;;;;;;;;5037667;28;20481;-64
2024/02/09 14:35:47;;;;;;;9.15;4.82;;;;;;;;;;5025120;28;20456;-64
2024/02/09 14:38:14;;;;;;;9.50;4.28;;;;;;;;;;5055788;28;20048;-63
2024/02/09 14:40:40;;;;;;;3.78;2.72;;;;;;;;;;5040448;28;20485;-63
2024/02/09 14:43:06;;;;;;;1.60;1.50;;;;;;;;;;5038526;28;20531;-63
2024/02/09 14:45:35;;;;;;;3.22;2.05;;;;;;;;;;5035794;28;20547;-63
2024/02/09 14:48:01;;;;;;;2.95;2.50;;;;;;;;;;5045064;28;20027;-64
2024/02/09 14:50:28;;;;;;;3.38;2.40;;;;;;;;;;5041120;28;20043;-63
2024/02/09 14:52:56;;;;;;;5.72;2.97;;;;;;;;;;5043224;28;20032;-63
2024/02/09 14:55:23;;;;;;;7.80;3.70;;;;;;;;;;5039368;28;20025;-64
2024/02/09 14:57:50;;;;;;;7.45;2.70;;;;;;;;;;5037477;28;20029;-63
2024/02/09 15:00:17;;;;;;;5.28;3.08;;;;;;;;;;5042444;28;20035;-64
2024/02/09 15:02:43;;;;;;;2.70;2.50;;;;;;;;;;5042850;28;20021;-63
2024/02/09 15:05:10;;;;;;;2.42;2.10;;;;;;;;;;5040228;28;20086;-63
2024/02/09 15:07:41;;;;;;;3.78;2.45;;;;;;;;;;5038844;28;20040;-63
2024/02/09 15:10:08;;;;;;;4.15;2.03;;;;;;;;;;5042674;28;20526;-63
2024/02/09 15:12:34;;;;;;;3.97;2.35;;;;;;;;;;5020235;28;20060;-62
2024/02/09 15:15:01;;;;;;;4.50;3.63;;;;;;;;;;5039042;28;20127;-63
2024/02/09 15:17:27;;;;;;;3.13;2.78;;;;;;;;;;5044677;28;20100;-63
2024/02/09 15:19:54;;;;;;;5.88;2.90;;;;;;;;;;5041801;28;20025;-63
2024/02/09 15:22:20;;;;;;;4.53;2.40;;;;;;;;;;5024231;28;20511;-64
2024/02/09 15:24:46;;;;;;;4.85;3.65;;;;;;;;;;5039342;28;20136;-63
2024/02/09 15:27:13;;;;;;;5.28;3.22;;;;;;;;;;5043860;28;20035;-63
2024/02/09 15:29:41;;;;;;;3.42;2.88;;;;;;;;;;5041667;28;20420;-63
2024/02/09 15:32:13;;;;;;;4.85;3.00;;;;;;;;;;5019496;28;20523;-63
2024/02/09 15:34:45;;;;;;;5.45;3.75;;;;;;;;;;5044545;28;21456;-63
2024/02/09 15:37:12;;;;;;;7.85;4.32;;;;;;;;;;5036328;28;20045;-63
2024/02/09 15:39:39;;;;;;;8.30;4.95;;;;;;;;;;5043149;28;20055;-62
2024/02/09 15:42:05;;;;;;;8.55;3.83;;;;;;;;;;5025300;28;20035;-63
2024/02/09 15:44:31;;;;;;;12.63;5.80;;;;;;;;;;5036601;28;20025;-63
2024/02/09 15:46:58;;;;;;;6.35;5.57;;;;;;;;;;5043585;28;20047;-63
2024/02/09 15:49:27;;;;;;;6.13;5.32;;;;;;;;;;5025130;28;20549;-63
2024/02/09 15:51:57;;;;;;;3.15;2.85;;;;;;;;;;5038015;28;20033;-63
2024/02/09 15:54:23;;;;;;;4.80;4.10;;;;;;;;;;5039623;28;20434;-63
2024/02/09 15:56:49;;;;;;;6.25;3.17;;;;;;;;;;5037497;28;20028;-63
2024/02/09 15:59:15;;;;;;;6.53;4.38;;;;;;;;;;5025602;28;20033;-63
2024/02/09 16:02:25;;;;;;;8.98;4.25;;;;;;;;;;5022368;28;20040;-64
2024/02/09 16:04:32;;;;;;;6.28;4.30;;;;;;;;;;5030040;28;20037;-66
2024/02/09 16:06:58;;;;;;;9.25;4.95;;;;;;;;;;5022997;28;20025;-63
2024/02/09 16:09:25;;;;;;;12.13;5.40;;;;;;;;;;5036241;28;20463;-63
2024/02/09 16:11:51;;;;;;;4.35;3.95;;;;;;;;;;5042976;28;20029;-64
2024/02/09 16:14:17;;;;;;;6.15;5.32;;;;;;;;;;5043905;28;20025;-66
2024/02/09 16:16:43;;;;;;;2.75;2.50;;;;;;;;;;5043185;28;20468;-63
2024/02/09 16:19:10;;;;;;;3.90;3.00;;;;;;;;;;5042816;28;20028;-62
2024/02/09 16:21:36;;;;;;;5.80;4.18;;;;;;;;;;5041391;28;20021;-62
2024/02/09 16:24:04;;;;;;;5.22;4.20;;;;;;;;;;5038335;28;20548;-62
2024/02/09 16:26:31;;;;;;;9.55;4.75;;;;;;;;;;5013857;28;20087;-62
2024/02/09 16:28:58;;;;;;;7.95;4.57;;;;;;;;;;5038023;28;20708;-62
2024/02/09 16:31:24;;;;;;;11.82;5.13;;;;;;;;;;5040092;28;20032;-64
2024/02/09 16:33:50;;;;;;;11.30;5.43;;;;;;;;;;5017083;28;20086;-62